createdAt,value
2019-02-18T00:00:01.207Z,0.66
2019-02-18T00:01:01.040Z,0.6
2019-02-18T00:02:01.729Z,0.63
2019-02-18T00:03:01.046Z,0.48
2019-02-18T00:04:01.005Z,0.59
2019-02-18T00:05:02.009Z,0.54
2019-02-18T00:06:00.954Z,0.55
2019-02-18T00:07:01.021Z,0.54
2019-02-18T00:08:00.975Z,0.59
2019-02-18T00:09:01.678Z,0.55
2019-02-18T00:10:01.002Z,0.44
2019-02-18T00:11:01.477Z,0.56
2019-02-18T00:12:01.407Z,0.48
2019-02-18T00:13:01.049Z,0.57
2019-02-18T00:14:00.990Z,0.47
2019-02-18T00:15:00.996Z,0.49
2019-02-18T00:16:01.038Z,0.47
2019-02-18T00:17:00.858Z,0.46
2019-02-18T00:18:01.007Z,0.53
2019-02-18T00:19:01.524Z,0.53
2019-02-18T00:20:02.704Z,0.5
2019-02-18T00:21:00.986Z,0.49
2019-02-18T00:22:00.852Z,0.48
2019-02-18T00:23:01.075Z,0.51
2019-02-18T00:24:02.118Z,0.49
2019-02-18T00:25:01.730Z,0.5
2019-02-18T00:26:01.167Z,0.5
2019-02-18T00:27:00.669Z,0.48
2019-02-18T00:28:01.015Z,0.52
2019-02-18T00:29:01.022Z,0.44
2019-02-18T00:30:01.101Z,0.41
2019-02-18T00:31:01.196Z,0.44
2019-02-18T00:32:01.011Z,0.38
2019-02-18T00:33:01.116Z,0.43
2019-02-18T00:34:01.119Z,0.4
2019-02-18T00:35:01.130Z,0.37
2019-02-18T00:36:01.329Z,0.34
2019-02-18T00:37:00.994Z,0.38
2019-02-18T00:38:00.827Z,0.38
2019-02-18T00:39:01.144Z,0.45
2019-02-18T00:40:01.164Z,0.39
2019-02-18T00:41:02.661Z,0.36
2019-02-18T00:42:01.338Z,0.42
2019-02-18T00:43:01.374Z,0.39
2019-02-18T00:44:01.087Z,0.3
2019-02-18T00:45:01.401Z,0.27
2019-02-18T00:46:00.802Z,0.33
2019-02-18T00:47:00.785Z,0.34
2019-02-18T00:48:01.109Z,0.37
2019-02-18T00:49:01.457Z,0.33
2019-02-18T00:50:01.849Z,0.4
2019-02-18T00:51:00.807Z,0.34
2019-02-18T00:52:01.033Z,0.32
2019-02-18T00:53:04.325Z,0.31
2019-02-18T00:54:01.098Z,0.31
2019-02-18T00:55:01.164Z,0.4
2019-02-18T00:56:01.081Z,0.36
2019-02-18T00:57:00.922Z,0.39
2019-02-18T00:58:00.791Z,0.3
2019-02-18T00:59:01.186Z,0.34
2019-02-18T01:00:01.508Z,0.37
2019-02-18T01:01:02.758Z,0.27
2019-02-18T01:02:01.100Z,0.35
2019-02-18T01:03:01.425Z,0.37
2019-02-18T01:04:00.844Z,0.35
2019-02-18T01:05:01.115Z,0.32
2019-02-18T01:06:01.659Z,0.4
2019-02-18T01:07:01.164Z,0.36
2019-02-18T01:08:01.148Z,0.37
2019-02-18T01:09:00.879Z,0.31
2019-02-18T01:10:01.368Z,0.35
2019-02-18T01:11:01.480Z,0.28
2019-02-18T01:12:01.300Z,0.31
2019-02-18T01:13:02.607Z,0.41
2019-02-18T01:14:00.985Z,0.39
2019-02-18T01:15:02.630Z,0.4
2019-02-18T01:16:01.197Z,0.34
2019-02-18T01:17:02.628Z,0.33
2019-02-18T01:18:02.609Z,0.3
2019-02-18T01:19:02.598Z,0.35
2019-02-18T01:20:01.035Z,0.29
2019-02-18T01:21:01.133Z,0.32
2019-02-18T01:22:00.856Z,0.27
2019-02-18T01:23:01.348Z,0.2
2019-02-18T01:24:02.675Z,0.25
2019-02-18T01:25:01.054Z,0.22
2019-02-18T01:26:01.660Z,0.16
2019-02-18T01:27:01.165Z,0.14
2019-02-18T01:28:00.745Z,0.21
2019-02-18T01:29:01.183Z,0.24
2019-02-18T01:30:00.920Z,0.22
2019-02-18T01:31:01.122Z,0.26
2019-02-18T01:32:01.195Z,0.26
2019-02-18T01:33:01.261Z,0.25
2019-02-18T01:34:00.858Z,0.16
2019-02-18T01:35:01.101Z,0.19
2019-02-18T01:36:00.772Z,0.16
2019-02-18T01:37:01.213Z,0.19
2019-02-18T01:38:01.039Z,0.23
2019-02-18T01:39:01.052Z,0.19
2019-02-18T01:40:01.213Z,0.24
2019-02-18T01:41:02.581Z,0.21
2019-02-18T01:42:01.606Z,0.22
2019-02-18T01:43:01.177Z,0.21
2019-02-18T01:44:01.023Z,0.22
2019-02-18T01:45:01.083Z,0.21
2019-02-18T01:46:01.198Z,0.19
2019-02-18T01:47:01.197Z,0.24
2019-02-18T01:48:01.309Z,0.27
2019-02-18T01:49:00.783Z,0.27
2019-02-18T01:50:01.327Z,0.26
2019-02-18T01:51:02.028Z,0.15
2019-02-18T01:52:02.571Z,0.27
2019-02-18T01:53:00.944Z,0.28
2019-02-18T01:54:01.249Z,0.24
2019-02-18T01:55:00.710Z,0.25
2019-02-18T01:56:01.653Z,0.24
2019-02-18T01:57:00.957Z,0.28
2019-02-18T01:58:01.335Z,0.21
2019-02-18T01:59:01.186Z,0.18
2019-02-18T02:00:01.281Z,0.18
2019-02-18T02:01:01.211Z,0.16
2019-02-18T02:02:01.213Z,0.23
2019-02-18T02:03:00.785Z,0.25
2019-02-18T02:04:01.104Z,0.18
2019-02-18T02:05:01.425Z,0.19
2019-02-18T02:06:00.886Z,0.16
2019-02-18T02:07:02.541Z,0.2
2019-02-18T02:08:02.787Z,0.23
2019-02-18T02:09:00.752Z,0.19
2019-02-18T02:10:00.819Z,0.22
2019-02-18T02:11:00.756Z,0.22
2019-02-18T02:12:00.676Z,0.24
2019-02-18T02:13:00.947Z,0.19
2019-02-18T02:14:00.969Z,0.19
2019-02-18T02:15:01.726Z,0.16
2019-02-18T02:16:01.105Z,0.15
2019-02-18T02:17:01.092Z,0.24
2019-02-18T02:18:01.897Z,0.21
2019-02-18T02:19:02.560Z,0.19
2019-02-18T02:20:02.268Z,0.2
2019-02-18T02:21:02.539Z,0.2
2019-02-18T02:22:00.837Z,0.15
2019-02-18T02:23:00.934Z,0.16
2019-02-18T02:24:00.964Z,0.15
2019-02-18T02:25:00.734Z,0.18
2019-02-18T02:26:01.372Z,0.19
2019-02-18T02:27:00.851Z,0.11
2019-02-18T02:28:00.663Z,0.13
2019-02-18T02:29:01.694Z,0.09
2019-02-18T02:30:02.580Z,0.14
2019-02-18T02:31:02.206Z,0.09
2019-02-18T02:32:01.056Z,0.05
2019-02-18T02:33:01.405Z,0.09
2019-02-18T02:34:00.695Z,0.1
2019-02-18T02:35:00.699Z,0.08
2019-02-18T02:36:01.221Z,-0.02
2019-02-18T02:37:00.760Z,-0.02
2019-02-18T02:38:08.445Z,-0.02
2019-02-18T02:39:01.003Z,-0.04
2019-02-18T02:40:01.356Z,-0.03
2019-02-18T02:41:01.477Z,0.04
2019-02-18T02:42:00.735Z,0.02
2019-02-18T02:43:00.716Z,0.05
2019-02-18T02:44:01.506Z,0
2019-02-18T02:45:00.766Z,-0.02
2019-02-18T02:46:00.631Z,0.01
2019-02-18T02:47:00.751Z,-0.01
2019-02-18T02:48:01.019Z,-0.02
2019-02-18T02:49:00.984Z,0
2019-02-18T02:50:01.166Z,0.01
2019-02-18T02:51:00.813Z,0.03
2019-02-18T02:52:01.120Z,-0.04
2019-02-18T02:53:01.131Z,0.04
2019-02-18T02:54:00.755Z,0.01
2019-02-18T02:55:02.478Z,-0.02
2019-02-18T02:56:02.466Z,-0.02
2019-02-18T02:57:02.465Z,-0.03
2019-02-18T02:58:00.996Z,0.02
2019-02-18T02:59:01.167Z,-0.05
2019-02-18T03:00:01.008Z,-0.04
2019-02-18T03:01:00.972Z,-0.03
2019-02-18T03:02:00.640Z,-0.06
2019-02-18T03:03:01.906Z,-0.06
2019-02-18T03:04:01.017Z,-0.09
2019-02-18T03:05:01.213Z,-0.01
2019-02-18T03:06:01.117Z,-0.02
2019-02-18T03:07:00.819Z,-0.06
2019-02-18T03:08:00.782Z,-0.05
2019-02-18T03:09:00.827Z,-0.08
2019-02-18T03:10:00.990Z,-0.05
2019-02-18T03:11:01.016Z,-0.03
2019-02-18T03:12:00.882Z,-0.07
2019-02-18T03:13:00.776Z,-0.04
2019-02-18T03:14:00.765Z,-0.13
2019-02-18T03:15:02.447Z,-0.18
2019-02-18T03:16:00.712Z,-0.18
2019-02-18T03:17:00.724Z,-0.16
2019-02-18T03:18:00.996Z,-0.17
2019-02-18T03:19:00.759Z,-0.1
2019-02-18T03:20:00.922Z,-0.12
2019-02-18T03:21:00.698Z,-0.07
2019-02-18T03:22:01.739Z,0.01
2019-02-18T03:23:01.483Z,-0.09
2019-02-18T03:24:00.920Z,-0.08
2019-02-18T03:25:01.635Z,-0.07
2019-02-18T03:26:00.839Z,-0.06
2019-02-18T03:27:00.990Z,-0.04
2019-02-18T03:28:00.599Z,-0.1
2019-02-18T03:29:02.416Z,0
2019-02-18T03:30:00.889Z,-0.06
2019-02-18T03:31:01.165Z,-0.03
2019-02-18T03:32:00.625Z,-0.1
2019-02-18T03:33:00.882Z,-0.14
2019-02-18T03:34:00.681Z,-0.13
2019-02-18T03:35:01.391Z,-0.09
2019-02-18T03:36:00.688Z,-0.01
2019-02-18T03:37:00.816Z,-0.1
2019-02-18T03:38:00.870Z,-0.08
2019-02-18T03:39:00.827Z,-0.17
2019-02-18T03:40:00.781Z,-0.21
2019-02-18T03:41:04.001Z,-0.24
2019-02-18T03:42:02.029Z,-0.13
2019-02-18T03:43:00.575Z,-0.2
2019-02-18T03:44:01.247Z,-0.2
2019-02-18T03:45:00.700Z,-0.17
2019-02-18T03:46:02.418Z,-0.19
2019-02-18T03:47:00.425Z,-0.26
2019-02-18T03:48:00.402Z,-0.18
2019-02-18T03:49:00.379Z,-0.25
2019-02-18T03:50:00.456Z,-0.2
2019-02-18T03:51:00.916Z,-0.2
2019-02-18T03:52:00.606Z,-0.24
2019-02-18T03:53:01.033Z,-0.25
2019-02-18T03:54:00.812Z,-0.25
2019-02-18T03:55:00.986Z,-0.19
2019-02-18T03:56:00.865Z,-0.23
2019-02-18T03:57:00.849Z,-0.2
2019-02-18T03:58:00.888Z,-0.24
2019-02-18T03:59:01.260Z,-0.27
2019-02-18T04:00:00.982Z,-0.25
2019-02-18T04:01:00.871Z,-0.25
2019-02-18T04:02:01.184Z,-0.33
2019-02-18T04:03:00.653Z,-0.36
2019-02-18T04:04:02.392Z,-0.3
2019-02-18T04:05:01.050Z,-0.3
2019-02-18T04:06:00.722Z,-0.29
2019-02-18T04:07:01.132Z,-0.32
2019-02-18T04:08:01.054Z,-0.29
2019-02-18T04:09:02.433Z,-0.37
2019-02-18T04:10:00.780Z,-0.26
2019-02-18T04:11:00.723Z,-0.23
2019-02-18T04:12:00.631Z,-0.32
2019-02-18T04:13:00.884Z,-0.27
2019-02-18T04:14:00.866Z,-0.24
2019-02-18T04:15:01.002Z,-0.3
2019-02-18T04:16:00.981Z,-0.35
2019-02-18T04:17:01.025Z,-0.36
2019-02-18T04:18:00.637Z,-0.28
2019-02-18T04:19:00.757Z,-0.34
2019-02-18T04:20:01.229Z,-0.32
2019-02-18T04:21:00.905Z,-0.37
2019-02-18T04:22:00.811Z,-0.4
2019-02-18T04:23:00.710Z,-0.43
2019-02-18T04:24:00.931Z,-0.38
2019-02-18T04:25:00.941Z,-0.36
2019-02-18T04:26:00.879Z,-0.43
2019-02-18T04:27:00.614Z,-0.41
2019-02-18T04:28:00.867Z,-0.43
2019-02-18T04:29:00.863Z,-0.39
2019-02-18T04:30:00.873Z,-0.31
2019-02-18T04:31:01.980Z,-0.39
2019-02-18T04:32:01.716Z,-0.45
2019-02-18T04:33:00.357Z,-0.43
2019-02-18T04:34:00.493Z,-0.41
2019-02-18T04:35:00.931Z,-0.46
2019-02-18T04:36:00.715Z,-0.47
2019-02-18T04:37:00.772Z,-0.41
2019-02-18T04:38:00.643Z,-0.43
2019-02-18T04:39:02.346Z,-0.44
2019-02-18T04:40:00.653Z,-0.45
2019-02-18T04:41:00.653Z,-0.44
2019-02-18T04:42:00.624Z,-0.44
2019-02-18T04:43:00.557Z,-0.51
2019-02-18T04:44:01.398Z,-0.59
2019-02-18T04:45:00.596Z,-0.51
2019-02-18T04:46:00.590Z,-0.51
2019-02-18T04:47:00.596Z,-0.51
2019-02-18T04:48:00.856Z,-0.51
2019-02-18T04:49:01.719Z,-0.49
2019-02-18T04:50:00.553Z,-0.55
2019-02-18T04:51:00.619Z,-0.53
2019-02-18T04:52:02.296Z,-0.5
2019-02-18T04:53:01.037Z,-0.51
2019-02-18T04:54:01.021Z,-0.49
2019-02-18T04:55:00.624Z,-0.52
2019-02-18T04:56:01.407Z,-0.58
2019-02-18T04:57:00.865Z,-0.55
2019-02-18T04:58:00.865Z,-0.55
2019-02-18T04:59:00.733Z,-0.54
2019-02-18T05:00:01.152Z,-0.57
2019-02-18T05:01:03.301Z,-0.53
2019-02-18T05:02:00.750Z,-0.55
2019-02-18T05:03:01.071Z,-0.59
2019-02-18T05:04:00.764Z,-0.63
2019-02-18T05:05:00.967Z,-0.59
2019-02-18T05:06:00.873Z,-0.66
2019-02-18T05:07:02.368Z,-0.61
2019-02-18T05:08:01.341Z,-0.63
2019-02-18T05:09:06.101Z,-0.63
2019-02-18T05:10:00.713Z,-0.64
2019-02-18T05:11:00.533Z,-0.58
2019-02-18T05:12:00.257Z,-0.7
2019-02-18T05:13:02.302Z,-0.68
2019-02-18T05:14:00.257Z,-0.68
2019-02-18T05:15:00.390Z,-0.65
2019-02-18T05:16:00.244Z,-0.66
2019-02-18T05:17:00.308Z,-0.7
2019-02-18T05:18:00.254Z,-0.66
2019-02-18T05:19:00.653Z,-0.71
2019-02-18T05:20:00.787Z,-0.64
2019-02-18T05:21:00.889Z,-0.62
2019-02-18T05:22:01.044Z,-0.67
2019-02-18T05:23:00.797Z,-0.66
2019-02-18T05:24:00.485Z,-0.74
2019-02-18T05:25:01.236Z,-0.65
2019-02-18T05:26:00.601Z,-0.65
2019-02-18T05:27:00.837Z,-0.64
2019-02-18T05:28:00.734Z,-0.61
2019-02-18T05:29:02.380Z,-0.6
2019-02-18T05:30:00.806Z,-0.68
2019-02-18T05:31:01.472Z,-0.64
2019-02-18T05:32:00.457Z,-0.7
2019-02-18T05:33:00.755Z,-0.63
2019-02-18T05:34:00.411Z,-0.59
2019-02-18T05:35:00.580Z,-0.68
2019-02-18T05:36:00.626Z,-0.64
2019-02-18T05:37:02.233Z,-0.54
2019-02-18T05:38:01.494Z,-0.69
2019-02-18T05:39:00.813Z,-0.71
2019-02-18T05:40:02.323Z,-0.66
2019-02-18T05:41:00.824Z,-0.71
2019-02-18T05:42:01.299Z,-0.69
2019-02-18T05:43:00.368Z,-0.72
2019-02-18T05:44:00.484Z,-0.74
2019-02-18T05:45:00.978Z,-0.71
2019-02-18T05:46:00.477Z,-0.76
2019-02-18T05:47:02.247Z,-0.79
2019-02-18T05:48:00.621Z,-0.71
2019-02-18T05:49:00.778Z,-0.68
2019-02-18T05:50:00.580Z,-0.7
2019-02-18T05:51:00.992Z,-0.72
2019-02-18T05:52:00.704Z,-0.83
2019-02-18T05:53:00.509Z,-0.8
2019-02-18T05:54:00.393Z,-0.73
2019-02-18T05:55:00.749Z,-0.73
2019-02-18T05:56:01.459Z,-0.73
2019-02-18T05:57:00.541Z,-0.71
2019-02-18T05:58:00.728Z,-0.75
2019-02-18T05:59:00.395Z,-0.71
2019-02-18T06:00:01.987Z,-0.74
2019-02-18T06:01:02.198Z,-0.73
2019-02-18T06:02:01.064Z,-0.72
2019-02-18T06:03:00.893Z,-0.72
2019-02-18T06:04:00.745Z,-0.68
2019-02-18T06:05:01.081Z,-0.74
2019-02-18T06:06:00.549Z,-0.75
2019-02-18T06:07:02.193Z,-0.81
2019-02-18T06:08:00.584Z,-0.81
2019-02-18T06:09:01.342Z,-0.77
2019-02-18T06:10:00.904Z,-0.76
2019-02-18T06:11:00.706Z,-0.76
2019-02-18T06:12:00.433Z,-0.81
2019-02-18T06:13:00.656Z,-0.77
2019-02-18T06:14:00.951Z,-0.85
2019-02-18T06:15:00.817Z,-0.8
2019-02-18T06:16:00.750Z,-0.84
2019-02-18T06:17:03.060Z,-0.8
2019-02-18T06:18:01.566Z,-0.8
2019-02-18T06:19:00.361Z,-0.86
2019-02-18T06:20:00.447Z,-0.83
2019-02-18T06:21:02.195Z,-0.84
2019-02-18T06:22:01.280Z,-0.83
2019-02-18T06:23:02.174Z,-0.8
2019-02-18T06:24:00.491Z,-0.78
2019-02-18T06:25:00.558Z,-0.82
2019-02-18T06:26:00.639Z,-0.77
2019-02-18T06:27:00.834Z,-0.79
2019-02-18T06:28:00.650Z,-0.87
2019-02-18T06:29:00.383Z,-0.75
2019-02-18T06:30:00.923Z,-0.81
2019-02-18T06:31:00.796Z,-0.81
2019-02-18T06:32:00.528Z,-0.84
2019-02-18T06:33:01.425Z,-0.81
2019-02-18T06:34:00.664Z,-0.76
2019-02-18T06:35:01.017Z,-0.82
2019-02-18T06:36:01.190Z,-0.83
2019-02-18T06:37:00.426Z,-0.73
2019-02-18T06:38:00.777Z,-0.79
2019-02-18T06:39:00.898Z,-0.78
2019-02-18T06:40:00.594Z,-0.75
2019-02-18T06:41:00.440Z,-0.76
2019-02-18T06:42:00.412Z,-0.81
2019-02-18T06:43:00.710Z,-0.8
2019-02-18T06:44:01.278Z,-0.76
2019-02-18T06:45:01.049Z,-0.72
2019-02-18T06:46:01.566Z,-0.74
2019-02-18T06:47:00.630Z,-0.72
2019-02-18T06:48:00.450Z,-0.73
2019-02-18T06:49:02.202Z,-0.73
2019-02-18T06:50:02.124Z,-0.69
2019-02-18T06:51:00.672Z,-0.75
2019-02-18T06:52:00.346Z,-0.73
2019-02-18T06:53:00.453Z,-0.62
2019-02-18T06:54:02.127Z,-0.62
2019-02-18T06:55:00.440Z,-0.58
2019-02-18T06:56:00.397Z,-0.62
2019-02-18T06:57:00.844Z,-0.6
2019-02-18T06:58:00.472Z,-0.61
2019-02-18T06:59:00.246Z,-0.63
2019-02-18T07:00:00.989Z,-0.61
2019-02-18T07:01:00.324Z,-0.64
2019-02-18T07:02:00.490Z,-0.64
2019-02-18T07:03:00.819Z,-0.59
2019-02-18T07:04:00.347Z,-0.65
2019-02-18T07:05:00.637Z,-0.61
2019-02-18T07:06:01.126Z,-0.65
2019-02-18T07:07:01.031Z,-0.65
2019-02-18T07:08:00.510Z,-0.67
2019-02-18T07:09:00.477Z,-0.6
2019-02-18T07:10:01.234Z,-0.61
2019-02-18T07:11:00.556Z,-0.57
2019-02-18T07:12:00.814Z,-0.54
2019-02-18T07:13:00.510Z,-0.58
2019-02-18T07:14:00.259Z,-0.6
2019-02-18T07:15:00.822Z,-0.57
2019-02-18T07:16:00.463Z,-0.55
2019-02-18T07:17:00.460Z,-0.53
2019-02-18T07:18:00.543Z,-0.47
2019-02-18T07:19:00.648Z,-0.42
2019-02-18T07:20:00.455Z,-0.47
2019-02-18T07:21:00.799Z,-0.47
2019-02-18T07:22:00.302Z,-0.49
2019-02-18T07:23:00.778Z,-0.45
2019-02-18T07:24:00.888Z,-0.49
2019-02-18T07:25:00.772Z,-0.44
2019-02-18T07:26:00.485Z,-0.45
2019-02-18T07:27:00.692Z,-0.41
2019-02-18T07:28:00.486Z,-0.43
2019-02-18T07:29:01.209Z,-0.41
2019-02-18T07:30:01.369Z,-0.36
2019-02-18T07:31:00.710Z,-0.37
2019-02-18T07:32:02.064Z,-0.38
2019-02-18T07:33:00.322Z,-0.37
2019-02-18T07:34:00.502Z,-0.35
2019-02-18T07:35:00.775Z,-0.33
2019-02-18T07:36:00.549Z,-0.32
2019-02-18T07:37:00.272Z,-0.3
2019-02-18T07:38:00.649Z,-0.31
2019-02-18T07:39:00.526Z,-0.28
2019-02-18T07:40:02.663Z,-0.23
2019-02-18T07:41:00.037Z,-0.26
2019-02-18T07:42:00.041Z,-0.24
2019-02-18T07:43:00.042Z,-0.18
2019-02-18T07:44:00.607Z,-0.19
2019-02-18T07:45:01.440Z,-0.16
2019-02-18T07:46:00.198Z,-0.18
2019-02-18T07:47:01.404Z,-0.19
2019-02-18T07:48:00.733Z,-0.1
2019-02-18T07:49:00.540Z,-0.14
2019-02-18T07:50:00.445Z,-0.13
2019-02-18T07:51:02.041Z,-0.12
2019-02-18T07:52:00.030Z,-0.03
2019-02-18T07:53:02.056Z,-0.04
2019-02-18T07:54:00.225Z,0.01
2019-02-18T07:55:00.418Z,-0.06
2019-02-18T07:56:00.591Z,-0.02
2019-02-18T07:57:00.187Z,0.01
2019-02-18T07:58:00.715Z,0.05
2019-02-18T07:59:00.495Z,0.03
2019-02-18T08:00:00.418Z,-0.01
2019-02-18T08:01:00.715Z,-0.01
2019-02-18T08:02:00.358Z,0.09
2019-02-18T08:03:00.421Z,0.08
2019-02-18T08:04:00.176Z,0.09
2019-02-18T08:05:02.847Z,0.13
2019-02-18T08:06:00.480Z,0.17
2019-02-18T08:07:00.699Z,0.11
2019-02-18T08:08:00.566Z,0.09
2019-02-18T08:09:00.830Z,0.12
2019-02-18T08:10:00.440Z,0.16
2019-02-18T08:11:00.475Z,0.23
2019-02-18T08:12:00.260Z,0.31
2019-02-18T08:13:00.691Z,0.25
2019-02-18T08:14:01.629Z,0.3
2019-02-18T08:15:00.497Z,0.36
2019-02-18T08:16:00.438Z,0.38
2019-02-18T08:17:00.223Z,0.33
2019-02-18T08:18:00.417Z,0.33
2019-02-18T08:19:00.547Z,0.4
2019-02-18T08:20:00.564Z,0.45
2019-02-18T08:21:00.555Z,0.46
2019-02-18T08:22:00.187Z,0.48
2019-02-18T08:23:01.203Z,0.47
2019-02-18T08:24:00.724Z,0.43
2019-02-18T08:25:01.015Z,0.48
2019-02-18T08:26:00.489Z,0.51
2019-02-18T08:27:00.336Z,0.49
2019-02-18T08:28:00.807Z,0.58
2019-02-18T08:29:00.335Z,0.64
2019-02-18T08:30:00.454Z,0.57
2019-02-18T08:31:00.352Z,0.62
2019-02-18T08:32:01.986Z,0.61
2019-02-18T08:33:00.521Z,0.66
2019-02-18T08:34:01.989Z,0.68
2019-02-18T08:35:01.009Z,0.7
2019-02-18T08:36:01.578Z,0.74
2019-02-18T08:37:00.546Z,0.69
2019-02-18T08:38:00.363Z,0.77
2019-02-18T08:39:00.559Z,0.8
2019-02-18T08:40:00.660Z,0.77
2019-02-18T08:41:01.070Z,0.83
2019-02-18T08:42:00.379Z,0.81
2019-02-18T08:43:00.431Z,0.89
2019-02-18T08:44:00.407Z,0.95
2019-02-18T08:45:00.415Z,0.91
2019-02-18T08:46:00.505Z,0.89
2019-02-18T08:47:00.981Z,0.93
2019-02-18T08:48:00.415Z,0.97
2019-02-18T08:49:00.115Z,0.99
2019-02-18T08:50:01.107Z,0.97
2019-02-18T08:51:00.428Z,0.99
2019-02-18T08:52:00.116Z,0.99
2019-02-18T08:53:00.124Z,1.04
2019-02-18T08:54:00.351Z,1.03
2019-02-18T08:55:02.030Z,1.01
2019-02-18T08:56:00.123Z,1.07
2019-02-18T08:57:01.129Z,1.06
2019-02-18T08:58:01.542Z,1.11
2019-02-18T08:59:00.179Z,1.15
2019-02-18T09:00:01.346Z,1.21
2019-02-18T09:01:03.207Z,1.18
2019-02-18T09:02:00.519Z,1.2
2019-02-18T09:03:01.029Z,1.28
2019-02-18T09:04:00.410Z,1.14
2019-02-18T09:05:00.523Z,1.22
2019-02-18T09:06:00.168Z,1.26
2019-02-18T09:07:00.117Z,1.33
2019-02-18T09:08:00.444Z,1.31
2019-02-18T09:09:00.277Z,1.31
2019-02-18T09:10:00.243Z,1.34
2019-02-18T09:11:00.126Z,1.34
2019-02-18T09:12:00.695Z,1.39
2019-02-18T09:13:00.388Z,1.41
2019-02-18T09:14:00.084Z,1.43
2019-02-18T09:15:00.046Z,1.47
2019-02-18T09:16:00.866Z,1.5
2019-02-18T09:17:00.184Z,1.54
2019-02-18T09:18:00.255Z,1.47
2019-02-18T09:19:01.024Z,1.41
2019-02-18T09:20:00.969Z,1.32
2019-02-18T09:21:01.022Z,1.37
2019-02-18T09:22:00.446Z,1.39
2019-02-18T09:23:00.376Z,1.43
2019-02-18T09:24:00.361Z,1.48
2019-02-18T09:25:00.129Z,1.44
2019-02-18T09:26:01.930Z,1.51
2019-02-18T09:27:00.463Z,1.45
2019-02-18T09:28:00.130Z,1.46
2019-02-18T09:29:00.125Z,1.5
2019-02-18T09:30:00.239Z,1.54
2019-02-18T09:31:02.374Z,1.52
2019-02-18T09:32:00.290Z,1.48
2019-02-18T09:33:00.366Z,1.4
2019-02-18T09:34:00.130Z,1.4
2019-02-18T09:35:02.531Z,1.39
2019-02-18T09:36:00.227Z,1.38
2019-02-18T09:37:00.127Z,1.39
2019-02-18T09:38:00.860Z,1.46
2019-02-18T09:39:00.347Z,1.49
2019-02-18T09:40:00.430Z,1.34
2019-02-18T09:41:00.573Z,1.46
2019-02-18T09:42:00.365Z,1.41
2019-02-18T09:43:00.388Z,1.34
2019-02-18T09:44:00.028Z,1.44
2019-02-18T09:45:00.504Z,1.45
2019-02-18T09:46:00.072Z,1.49
2019-02-18T09:47:00.497Z,1.41
2019-02-18T09:48:00.408Z,1.51
2019-02-18T09:49:00.115Z,1.53
2019-02-18T09:50:00.531Z,1.56
2019-02-18T09:51:00.606Z,1.65
2019-02-18T09:52:00.021Z,1.63
2019-02-18T09:53:02.821Z,1.61
2019-02-18T09:54:00.342Z,1.67
2019-02-18T09:55:00.464Z,1.69
2019-02-18T09:56:00.276Z,1.59
2019-02-18T09:57:00.194Z,1.62
2019-02-18T09:58:00.101Z,1.57
2019-02-18T09:59:00.094Z,1.55
2019-02-18T10:00:00.035Z,1.66
2019-02-18T10:01:01.146Z,1.55
2019-02-18T10:02:00.495Z,1.48
2019-02-18T10:03:01.845Z,1.54
2019-02-18T10:04:01.849Z,1.51
2019-02-18T10:05:00.607Z,1.5
2019-02-18T10:06:00.059Z,1.4
2019-02-18T10:07:00.402Z,1.41
2019-02-18T10:08:00.122Z,1.53
2019-02-18T10:09:00.456Z,1.5
2019-02-18T10:10:00.262Z,1.42
2019-02-18T10:11:00.277Z,1.67
2019-02-18T10:12:00.067Z,1.6
2019-02-18T10:13:01.819Z,1.71
2019-02-18T10:14:00.063Z,1.67
2019-02-18T10:15:00.356Z,1.66
2019-02-18T10:16:01.193Z,1.61
2019-02-18T10:17:00.404Z,1.61
2019-02-18T10:18:00.063Z,1.67
2019-02-18T10:19:00.327Z,1.53
2019-02-18T10:20:02.629Z,1.52
2019-02-18T10:21:00.097Z,1.53
2019-02-18T10:22:00.854Z,1.43
2019-02-18T10:23:00.235Z,1.5
2019-02-18T10:24:00.401Z,1.42
2019-02-18T10:25:00.312Z,1.45
2019-02-18T10:26:01.076Z,1.39
2019-02-18T10:26:59.812Z,1.59
2019-02-18T10:28:01.852Z,1.44
2019-02-18T10:29:00.026Z,1.31
2019-02-18T10:30:00.696Z,1.52
2019-02-18T10:30:59.786Z,1.59
2019-02-18T10:31:59.793Z,1.35
2019-02-18T10:32:59.784Z,1.5
2019-02-18T10:34:01.414Z,1.49
2019-02-18T10:35:00.052Z,1.5
2019-02-18T10:36:00.051Z,1.57
2019-02-18T10:36:59.968Z,1.39
2019-02-18T10:38:00.140Z,1.55
2019-02-18T10:38:59.919Z,1.56
2019-02-18T10:40:00.413Z,1.55
2019-02-18T10:41:07.444Z,1.44
2019-02-18T10:42:00.140Z,1.69
2019-02-18T10:43:00.056Z,1.65
2019-02-18T10:43:59.974Z,1.46
2019-02-18T10:45:00.098Z,1.65
2019-02-18T10:46:00.622Z,1.7
2019-02-18T10:47:00.031Z,1.65
2019-02-18T10:48:00.420Z,1.98
2019-02-18T10:49:00.342Z,1.87
2019-02-18T10:50:00.053Z,1.76
2019-02-18T10:51:00.078Z,1.89
2019-02-18T10:52:01.806Z,1.84
2019-02-18T10:53:00.878Z,2
2019-02-18T10:54:01.365Z,1.82
2019-02-18T10:55:00.938Z,1.85
2019-02-18T10:56:00.288Z,1.99
2019-02-18T10:57:00.089Z,2.08
2019-02-18T10:57:59.997Z,2.12
2019-02-18T10:59:00.591Z,2.14
2019-02-18T11:00:00.515Z,1.99
2019-02-18T11:01:00.060Z,2.11
2019-02-18T11:02:01.911Z,2.03
2019-02-18T11:03:00.331Z,2.2
2019-02-18T11:04:00.008Z,2.2
2019-02-18T11:05:00.760Z,2.41
2019-02-18T11:06:00.250Z,2.27
2019-02-18T11:07:00.752Z,2.2
2019-02-18T11:08:00.032Z,2.12
2019-02-18T11:09:00.135Z,2.23
2019-02-18T11:10:00.545Z,2.35
2019-02-18T11:10:59.995Z,2.32
2019-02-18T11:12:00.085Z,2.29
2019-02-18T11:13:01.267Z,2.22
2019-02-18T11:14:00.123Z,1.97
2019-02-18T11:15:01.062Z,2.13
2019-02-18T11:16:01.745Z,2.08
2019-02-18T11:16:59.753Z,2.16
2019-02-18T11:17:59.734Z,2.44
2019-02-18T11:18:59.753Z,2.19
2019-02-18T11:19:59.737Z,2.32
2019-02-18T11:21:01.223Z,2.32
2019-02-18T11:22:00.113Z,2.3
2019-02-18T11:23:00.657Z,2.42
2019-02-18T11:24:00.152Z,2.53
2019-02-18T11:25:00.485Z,2.66
2019-02-18T11:26:01.150Z,2.58
2019-02-18T11:27:00.478Z,2.72
2019-02-18T11:28:00.171Z,2.67
2019-02-18T11:29:01.482Z,2.47
2019-02-18T11:30:01.733Z,2.52
2019-02-18T11:31:00.315Z,2.09
2019-02-18T11:31:59.938Z,2.38
2019-02-18T11:33:00.729Z,2.44
2019-02-18T11:34:00.077Z,2.54
2019-02-18T11:35:01.104Z,2.62
2019-02-18T11:36:00.033Z,2.52
2019-02-18T11:37:01.786Z,2.59
2019-02-18T11:37:59.921Z,2.5
2019-02-18T11:39:00.145Z,2.64
2019-02-18T11:40:00.582Z,2.55
2019-02-18T11:41:00.131Z,2.35
2019-02-18T11:42:00.175Z,2.48
2019-02-18T11:43:00.594Z,2.64
2019-02-18T11:44:00.694Z,2.71
2019-02-18T11:45:01.082Z,2.62
2019-02-18T11:46:00.221Z,2.75
2019-02-18T11:47:00.505Z,2.43
2019-02-18T11:48:00.140Z,2.6
2019-02-18T11:49:00.126Z,2.06
2019-02-18T11:50:00.490Z,2.46
2019-02-18T11:51:01.673Z,2.63
2019-02-18T11:52:00.387Z,2.72
2019-02-18T11:53:01.340Z,2.83
2019-02-18T11:54:01.774Z,2.72
2019-02-18T11:55:00.389Z,2.95
2019-02-18T11:56:00.085Z,2.81
2019-02-18T11:57:00.030Z,2.85
2019-02-18T11:58:00.045Z,2.44
2019-02-18T11:59:00.898Z,2.83
2019-02-18T12:00:00.856Z,2.56
2019-02-18T12:01:01.389Z,2.88
2019-02-18T12:02:00.145Z,2.81
2019-02-18T12:03:12.851Z,2.38
2019-02-18T12:04:00.007Z,2.86
2019-02-18T12:05:00.051Z,2.74
2019-02-18T12:06:00.157Z,2.55
2019-02-18T12:06:59.882Z,2.64
2019-02-18T12:07:59.983Z,3.03
2019-02-18T12:09:01.752Z,2.69
2019-02-18T12:10:01.246Z,2.53
2019-02-18T12:11:00.109Z,2.19
2019-02-18T12:12:00.199Z,2.43
2019-02-18T12:12:59.934Z,2.63
2019-02-18T12:14:00.114Z,2.81
2019-02-18T12:15:00.472Z,2.76
2019-02-18T12:16:01.391Z,2.55
2019-02-18T12:17:00.231Z,2.58
2019-02-18T12:17:59.849Z,2.75
2019-02-18T12:19:00.089Z,2.71
2019-02-18T12:20:00.563Z,2.43
2019-02-18T12:21:00.057Z,2.79
2019-02-18T12:22:01.129Z,2.86
2019-02-18T12:23:01.064Z,2.61
2019-02-18T12:24:00.158Z,2.31
2019-02-18T12:25:00.058Z,2.47
2019-02-18T12:26:00.194Z,2.67
2019-02-18T12:27:00.800Z,2.91
2019-02-18T12:28:00.117Z,2.6
2019-02-18T12:29:00.138Z,2.7
2019-02-18T12:30:00.456Z,2.8
2019-02-18T12:31:01.018Z,2.84
2019-02-18T12:31:59.923Z,3.09
2019-02-18T12:33:01.730Z,3.04
2019-02-18T12:33:59.973Z,2.62
2019-02-18T12:34:59.892Z,2.73
2019-02-18T12:36:00.115Z,3.03
2019-02-18T12:36:59.931Z,2.7
2019-02-18T12:38:00.042Z,2.83
2019-02-18T12:39:00.927Z,2.62
2019-02-18T12:39:59.849Z,2.84
2019-02-18T12:41:00.188Z,2.98
2019-02-18T12:42:00.089Z,2.67
2019-02-18T12:43:00.177Z,2.78
2019-02-18T12:44:00.193Z,2.36
2019-02-18T12:45:01.310Z,2.76
2019-02-18T12:45:59.859Z,2.88
2019-02-18T12:47:01.317Z,2.7
2019-02-18T12:48:00.085Z,2.67
2019-02-18T12:49:00.110Z,3.1
2019-02-18T12:50:00.292Z,3.04
2019-02-18T12:50:59.882Z,2.81
2019-02-18T12:52:00.120Z,2.11
2019-02-18T12:52:59.955Z,1.82
2019-02-18T12:54:05.737Z,2.07
2019-02-18T12:55:01.333Z,2.29
2019-02-18T12:56:00.330Z,2.56
2019-02-18T12:57:00.211Z,2.52
2019-02-18T12:58:01.697Z,2.63
2019-02-18T12:58:59.953Z,2.64
2019-02-18T13:00:01.211Z,2.34
2019-02-18T13:01:00.076Z,2.22
2019-02-18T13:01:59.963Z,2.04
2019-02-18T13:03:01.698Z,1.57
2019-02-18T13:03:59.879Z,1.96
2019-02-18T13:05:00.546Z,1.98
2019-02-18T13:06:00.710Z,2.39
2019-02-18T13:07:00.851Z,1.79
2019-02-18T13:08:03.170Z,2.27
2019-02-18T13:09:00.083Z,1.82
2019-02-18T13:10:00.419Z,1.47
2019-02-18T13:11:00.813Z,2.23